Time;durP1;ratioP1;P1;durP2;ratioP2;P2;SDS_P1;SDS_P2;PMS_P1;PMS_P2;Temp;Humidity;BMP_temperature;BMP_pressure;BME280_temperature;BME280_humidity;BME280_pressure;Samples;Min_cycle;Max_cycle;Signal;HPM_P1;HPM_P2
2023/10/27 00:02:00;;;;;;;6.72;4.97;;;16.10;77.90;;;;;;10241554;28;20445;-59
2023/10/27 00:07:01;;;;;;;6.10;4.30;;;16.00;77.90;;;;;;10241506;28;20309;-59
2023/10/27 00:12:02;;;;;;;6.25;4.85;;;16.00;77.90;;;;;;10239680;28;20502;-58
2023/10/27 00:17:03;;;;;;;5.22;4.38;;;16.00;77.90;;;;;;10241154;29;20070;-58
2023/10/27 00:22:05;;;;;;;6.55;4.18;;;16.00;77.90;;;;;;10241259;28;20070;-58
2023/10/27 00:27:05;;;;;;;5.82;3.88;;;16.00;78.00;;;;;;10239946;28;20035;-58
2023/10/27 00:32:06;;;;;;;7.55;4.53;;;16.00;77.90;;;;;;10250738;28;20082;-58
2023/10/27 00:37:07;;;;;;;6.70;3.83;;;16.00;77.90;;;;;;10308467;28;20110;-59
2023/10/27 00:42:08;;;;;;;6.55;4.82;;;16.00;77.90;;;;;;10240396;28;20027;-59
2023/10/27 00:47:09;;;;;;;5.70;4.35;;;16.00;77.90;;;;;;10240486;29;20035;-59
2023/10/27 00:52:12;;;;;;;5.28;4.43;;;16.00;77.90;;;;;;10257162;28;20047;-59
2023/10/27 00:57:16;;;;;;;5.97;4.55;;;16.00;77.90;;;;;;10214505;29;20046;-58
2023/10/27 01:02:18;;;;;;;5.63;4.55;;;16.00;77.90;;;;;;10245872;28;20039;-58
2023/10/27 01:07:21;;;;;;;5.03;3.78;;;16.00;77.90;;;;;;10247281;28;20394;-59
2023/10/27 01:12:22;;;;;;;6.72;4.85;;;16.00;77.90;;;;;;10245432;28;20062;-59
2023/10/27 01:17:23;;;;;;;6.28;4.63;;;16.00;77.90;;;;;;10246747;28;20023;-58
2023/10/27 01:22:23;;;;;;;6.13;4.70;;;16.00;77.90;;;;;;10246201;28;20035;-59
2023/10/27 01:27:24;;;;;;;7.03;4.78;;;16.00;77.90;;;;;;10246332;28;20050;-59
2023/10/27 01:32:25;;;;;;;6.78;5.32;;;16.00;77.90;;;;;;10256499;28;20055;-59
2023/10/27 01:37:26;;;;;;;6.30;4.53;;;15.90;77.90;;;;;;10313900;28;20037;-58
2023/10/27 01:42:26;;;;;;;5.88;4.32;;;15.90;77.90;;;;;;10245772;28;20038;-58
2023/10/27 01:47:27;;;;;;;6.57;5.03;;;16.00;78.00;;;;;;10244438;29;20039;-59
2023/10/27 01:52:28;;;;;;;5.40;4.43;;;16.00;78.00;;;;;;10245177;28;20043;-59
2023/10/27 01:57:28;;;;;;;5.70;3.83;;;15.90;77.90;;;;;;10245732;29;20042;-59
2023/10/27 02:02:29;;;;;;;7.65;5.63;;;15.90;77.90;;;;;;10244911;28;20531;-59
2023/10/27 02:07:31;;;;;;;5.68;4.32;;;16.00;78.00;;;;;;10244003;28;20035;-59
2023/10/27 02:12:31;;;;;;;5.45;4.20;;;15.90;77.90;;;;;;10244924;28;20043;-59
2023/10/27 02:17:33;;;;;;;5.70;3.95;;;15.90;77.90;;;;;;10245197;28;20032;-59
2023/10/27 02:22:33;;;;;;;7.47;5.00;;;15.90;77.90;;;;;;10244570;28;20038;-58
2023/10/27 02:27:38;;;;;;;6.43;4.07;;;15.90;77.90;;;;;;10243359;29;20513;-59
2023/10/27 02:32:39;;;;;;;8.57;4.85;;;15.90;77.90;;;;;;10255251;28;20142;-59
2023/10/27 02:37:39;;;;;;;7.72;4.88;;;15.90;77.90;;;;;;10244424;28;20382;-58
2023/10/27 02:42:40;;;;;;;5.82;4.38;;;15.90;77.90;;;;;;10242668;28;20038;-59
2023/10/27 02:47:41;;;;;;;5.53;4.45;;;15.90;77.90;;;;;;10243978;28;20028;-58
2023/10/27 02:52:41;;;;;;;5.55;3.80;;;15.90;78.00;;;;;;10243681;29;20041;-59
2023/10/27 02:57:42;;;;;;;6.45;4.57;;;15.90;77.90;;;;;;10244239;29;20023;-58
2023/10/27 03:02:43;;;;;;;6.60;5.30;;;15.90;78.00;;;;;;10243319;28;20049;-59
2023/10/27 03:07:43;;;;;;;6.72;4.10;;;15.90;78.60;;;;;;10243491;28;20031;-58
2023/10/27 03:12:44;;;;;;;5.78;4.38;;;15.90;78.00;;;;;;10241322;28;20039;-58
2023/10/27 03:17:45;;;;;;;6.22;4.75;;;15.90;78.00;;;;;;10242826;28;20038;-58
2023/10/27 03:22:46;;;;;;;5.68;4.72;;;15.90;77.90;;;;;;10243146;28;20106;-59
2023/10/27 03:27:47;;;;;;;7.00;4.75;;;15.80;77.90;;;;;;10242567;28;20045;-58
2023/10/27 03:32:48;;;;;;;5.68;4.30;;;15.90;78.00;;;;;;10254631;28;20116;-59
2023/10/27 03:37:48;;;;;;;5.10;3.75;;;15.90;77.90;;;;;;10310487;28;20035;-59
2023/10/27 03:42:49;;;;;;;5.05;4.00;;;15.90;78.00;;;;;;10242280;29;20027;-59
2023/10/27 03:47:50;;;;;;;5.85;4.43;;;15.90;78.00;;;;;;10241842;28;20116;-58
2023/10/27 03:52:51;;;;;;;5.50;3.30;;;15.80;77.90;;;;;;10242454;28;20031;-59
2023/10/27 03:57:55;;;;;;;6.97;4.13;;;15.90;78.00;;;;;;10241401;28;20035;-59
2023/10/27 04:02:55;;;;;;;5.82;3.63;;;15.90;78.00;;;;;;10241773;29;20042;-59
2023/10/27 04:07:56;;;;;;;6.20;4.85;;;15.80;77.90;;;;;;10241144;28;20703;-59
2023/10/27 04:12:57;;;;;;;6.35;4.20;;;15.80;77.90;;;;;;10240084;28;20497;-58
2023/10/27 04:17:58;;;;;;;5.55;3.88;;;15.80;77.90;;;;;;10238218;29;20043;-58
2023/10/27 04:22:58;;;;;;;6.53;3.90;;;15.80;77.90;;;;;;10243711;28;20386;-59
2023/10/27 04:27:59;;;;;;;5.85;4.15;;;15.80;77.90;;;;;;10307857;28;20039;-58
2023/10/27 04:33:00;;;;;;;4.78;3.70;;;15.80;77.90;;;;;;10274375;28;20051;-58
2023/10/27 04:38:01;;;;;;;5.22;3.65;;;15.80;77.90;;;;;;10246556;28;20027;-58
2023/10/27 04:43:03;;;;;;;6.18;3.85;;;15.90;77.80;;;;;;10246343;29;20035;-59
2023/10/27 04:48:04;;;;;;;4.13;3.08;;;16.10;77.00;;;;;;10245515;28;20070;-58
2023/10/27 04:53:04;;;;;;;5.13;4.03;;;16.50;75.80;;;;;;10252056;28;20121;-58
2023/10/27 04:58:05;;;;;;;5.20;3.53;;;16.80;75.00;;;;;;10263926;28;20046;-58
2023/10/27 05:03:07;;;;;;;5.57;3.20;;;17.00;74.30;;;;;;10252582;28;20498;-59
2023/10/27 05:08:08;;;;;;;8.80;3.50;;;17.40;73.60;;;;;;10242731;28;20514;-58
2023/10/27 05:13:09;;;;;;;6.80;3.80;;;17.60;73.60;;;;;;10243978;28;20041;-58
2023/10/27 05:18:10;;;;;;;9.00;3.90;;;17.80;73.20;;;;;;10243996;28;20536;-56
2023/10/27 05:23:10;;;;;;;11.65;4.13;;;17.90;73.30;;;;;;10243921;28;20029;-58
2023/10/27 05:28:11;;;;;;;7.35;3.80;;;18.00;73.30;;;;;;10243395;28;20683;-60
2023/10/27 05:33:12;;;;;;;7.03;3.88;;;18.00;73.30;;;;;;10270313;28;20064;-59
2023/10/27 05:38:14;;;;;;;12.10;3.45;;;18.00;73.60;;;;;;10299852;28;20035;-60
2023/10/27 05:43:17;;;;;;;9.63;3.58;;;18.10;73.30;;;;;;10245588;28;20089;-59
2023/10/27 05:48:17;;;;;;;12.15;3.72;;;17.90;73.90;;;;;;10245084;28;20024;-58
2023/10/27 05:53:19;;;;;;;17.02;4.20;;;17.90;73.80;;;;;;10245214;29;20031;-58
2023/10/27 05:58:19;;;;;;;9.98;3.78;;;17.80;74.40;;;;;;10245418;28;20051;-57
2023/10/27 06:03:20;;;;;;;28.30;3.55;;;17.70;74.50;;;;;;10243780;29;20023;-58
2023/10/27 06:08:21;;;;;;;15.93;4.72;;;17.70;74.60;;;;;;10243578;28;20031;-58
2023/10/27 06:13:22;;;;;;;19.25;4.05;;;17.60;74.80;;;;;;10245055;28;20035;-58
2023/10/27 06:18:23;;;;;;;16.90;4.32;;;17.50;75.70;;;;;;10242165;28;20023;-58
2023/10/27 06:23:24;;;;;;;18.00;4.50;;;17.50;75.10;;;;;;10242288;29;20031;-58
2023/10/27 06:28:25;;;;;;;11.95;3.50;;;17.50;75.00;;;;;;10279676;28;20035;-57
2023/10/27 06:33:27;;;;;;;13.00;3.45;;;17.40;75.10;;;;;;10269630;28;20033;-58
2023/10/27 06:38:29;;;;;;;14.68;3.92;;;17.40;75.80;;;;;;10286253;28;20067;-58
2023/10/27 06:43:30;;;;;;;9.35;3.15;;;17.50;76.40;;;;;;10244051;29;20102;-58
2023/10/27 06:48:31;;;;;;;6.63;3.50;;;17.50;75.80;;;;;;10239564;28;20145;-58
2023/10/27 06:53:32;;;;;;;8.70;3.13;;;17.40;76.00;;;;;;10243235;28;20035;-58
2023/10/27 06:58:33;;;;;;;13.18;4.85;;;17.30;76.20;;;;;;10242380;28;20114;-58
2023/10/27 07:03:35;;;;;;;12.32;4.50;;;17.20;76.20;;;;;;10243391;29;20027;-58
2023/10/27 07:08:37;;;;;;;7.28;2.65;;;17.20;76.20;;;;;;10241826;28;20109;-57
2023/10/27 07:13:38;;;;;;;9.73;3.65;;;17.20;76.20;;;;;;10242266;29;20169;-59
2023/10/27 07:18:39;;;;;;;5.78;2.83;;;17.20;76.10;;;;;;10239517;28;20088;-58
2023/10/27 07:23:40;;;;;;;7.70;3.35;;;17.40;75.70;;;;;;10217406;28;20023;-59
2023/10/27 07:28:42;;;;;;;13.40;3.30;;;17.50;75.60;;;;;;10242924;28;20102;-59
2023/10/27 07:33:43;;;;;;;8.30;3.13;;;17.40;75.80;;;;;;10251659;28;20456;-59
2023/10/27 07:38:44;;;;;;;7.97;2.97;;;17.30;76.00;;;;;;10240835;28;20047;-58
2023/10/27 07:43:44;;;;;;;5.43;2.88;;;17.20;76.20;;;;;;10241631;28;20031;-59
2023/10/27 07:48:46;;;;;;;18.40;3.75;;;17.20;76.60;;;;;;10238995;28;20050;-59
2023/10/27 07:53:47;;;;;;;13.43;4.75;;;17.10;77.50;;;;;;10240398;28;20032;-58
2023/10/27 07:58:48;;;;;;;16.65;3.90;;;17.00;77.70;;;;;;10239810;28;20081;-57
2023/10/27 08:03:49;;;;;;;13.75;3.38;;;17.10;77.10;;;;;;10241828;29;20038;-57
2023/10/27 08:08:50;;;;;;;16.65;3.60;;;17.20;76.70;;;;;;10239266;28;20592;-57
2023/10/27 08:13:50;;;;;;;31.63;4.22;;;17.10;76.60;;;;;;10241098;28;20027;-58
2023/10/27 08:18:51;;;;;;;20.27;4.75;;;17.10;76.80;;;;;;10240141;28;20058;-57
2023/10/27 08:23:52;;;;;;;10.38;3.60;;;17.00;76.90;;;;;;10240331;28;20041;-58
2023/10/27 08:28:52;;;;;;;7.57;3.58;;;17.10;76.70;;;;;;10245315;28;20081;-58
2023/10/27 08:33:53;;;;;;;11.68;4.50;;;17.10;77.10;;;;;;10287827;28;20032;-58
2023/10/27 08:38:55;;;;;;;13.48;4.90;;;17.10;76.50;;;;;;10265230;28;20035;-58
2023/10/27 08:43:56;;;;;;;6.95;3.40;;;17.20;76.10;;;;;;10239814;28;20035;-57
2023/10/27 08:48:57;;;;;;;8.60;2.70;;;17.20;76.00;;;;;;10244484;28;20118;-58
2023/10/27 08:53:58;;;;;;;6.55;3.53;;;17.20;76.10;;;;;;10228790;29;20768;-63
2023/10/27 08:59:00;;;;;;;5.63;2.63;;;17.00;76.70;;;;;;10238278;28;20024;-59
2023/10/27 09:04:14;;;;;;;9.95;3.83;;;17.00;76.50;;;;;;10264249;28;20052;-58
2023/10/27 09:09:15;;;;;;;9.48;2.75;;;17.20;76.10;;;;;;10399971;28;20075;-57
2023/10/27 09:14:30;;;;;;;6.97;2.83;;;17.20;76.10;;;;;;10428701;28;20083;-56
2023/10/27 09:19:32;;;;;;;14.60;3.83;;;17.20;76.30;;;;;;10429643;28;20030;-57
2023/10/27 09:24:32;;;;;;;11.57;3.70;;;17.20;76.70;;;;;;10412932;28;20421;-58
2023/10/27 09:29:43;;;;;;;9.85;2.80;;;17.20;76.80;;;;;;10423332;28;20044;-58
2023/10/27 09:34:44;;;;;;;7.82;2.92;;;17.20;76.90;;;;;;10400252;28;20390;-57
2023/10/27 09:39:45;;;;;;;8.23;3.65;;;17.10;76.90;;;;;;10413101;28;20022;-57
2023/10/27 09:45:03;;;;;;;5.35;2.55;;;17.10;77.10;;;;;;10411707;28;20625;-59
2023/10/27 09:50:06;;;;;;;8.07;2.25;;;17.00;77.00;;;;;;10411291;28;20112;-58
2023/10/27 09:55:08;;;;;;;26.77;4.88;;;17.00;77.50;;;;;;10412845;28;20433;-58
2023/10/27 10:00:10;;;;;;;8.70;2.67;;;17.00;77.60;;;;;;10411207;28;20079;-58
2023/10/27 10:05:11;;;;;;;6.90;2.40;;;17.00;77.80;;;;;;10412433;28;20038;-57
2023/10/27 10:10:32;;;;;;;3.88;2.63;;;16.90;77.80;;;;;;10411653;28;20404;-57
2023/10/27 10:15:36;;;;;;;6.47;2.50;;;16.90;77.80;;;;;;10411707;28;20078;-57
2023/10/27 10:20:49;;;;;;;10.25;2.67;;;16.90;77.80;;;;;;10411163;28;20438;-58
2023/10/27 10:25:55;;;;;;;5.55;2.25;;;16.90;78.00;;;;;;10420233;28;20066;-58
2023/10/27 10:31:08;;;;;;;4.43;2.10;;;16.90;77.90;;;;;;10430045;28;20052;-57
2023/10/27 10:36:15;;;;;;;6.32;2.08;;;16.90;77.80;;;;;;10413532;28;20044;-59
2023/10/27 10:41:19;;;;;;;4.45;2.10;;;16.90;78.00;;;;;;10421170;28;20056;-61
2023/10/27 10:46:28;;;;;;;5.32;3.00;;;16.80;77.90;;;;;;10428184;28;20118;-61
2023/10/27 10:51:30;;;;;;;5.45;1.95;;;16.80;77.80;;;;;;10413061;28;20528;-61
2023/10/27 10:56:31;;;;;;;5.10;2.50;;;16.90;77.60;;;;;;10410059;28;20041;-61
2023/10/27 11:01:33;;;;;;;8.73;3.50;;;16.90;77.50;;;;;;10408338;28;20421;-61
2023/10/27 11:06:33;;;;;;;5.20;2.83;;;16.90;77.20;;;;;;10376464;28;20049;-60
2023/10/27 11:11:34;;;;;;;6.25;2.85;;;17.00;77.10;;;;;;10395218;28;20025;-58
2023/10/27 11:16:36;;;;;;;4.20;2.50;;;17.00;77.10;;;;;;10408018;28;20055;-58
2023/10/27 11:21:37;;;;;;;11.43;4.15;;;16.90;77.10;;;;;;10410005;28;20048;-60
2023/10/27 11:26:42;;;;;;;8.48;3.15;;;16.90;77.20;;;;;;10429086;28;20535;-61
2023/10/27 11:31:44;;;;;;;13.25;3.83;;;16.90;77.40;;;;;;10419864;28;20080;-58
2023/10/27 11:37:00;;;;;;;9.63;2.90;;;17.00;77.80;;;;;;10408466;28;20061;-57
2023/10/27 11:42:02;;;;;;;15.80;3.42;;;16.90;78.10;;;;;;10408138;28;20029;-58
2023/10/27 11:47:04;;;;;;;11.80;3.65;;;16.90;78.00;;;;;;10407961;28;20360;-58
2023/10/27 11:52:05;;;;;;;15.93;2.83;;;16.90;78.20;;;;;;10408545;28;20480;-58
2023/10/27 11:57:05;;;;;;;11.90;3.08;;;16.90;77.80;;;;;;10408256;28;20032;-58
2023/10/27 12:02:06;;;;;;;8.70;3.28;;;16.80;77.70;;;;;;10406457;28;20045;-58
2023/10/27 12:07:11;;;;;;;6.50;2.03;;;16.80;77.80;;;;;;10408791;28;20037;-58
2023/10/27 12:12:11;;;;;;;12.57;3.55;;;16.90;77.60;;;;;;10407296;28;20120;-58
2023/10/27 12:17:12;;;;;;;6.93;2.28;;;17.00;77.20;;;;;;10408075;28;20029;-59
2023/10/27 12:22:13;;;;;;;6.68;3.17;;;16.90;77.50;;;;;;10410956;28;20028;-58
2023/10/27 12:27:14;;;;;;;7.20;2.40;;;17.00;77.30;;;;;;10416388;28;20496;-57
2023/10/27 12:32:15;;;;;;;9.52;3.13;;;17.10;78.40;;;;;;10419551;28;20050;-58
2023/10/27 12:37:16;;;;;;;15.23;3.55;;;17.00;78.50;;;;;;10408368;28;20056;-57
2023/10/27 12:42:17;;;;;;;5.70;2.53;;;17.00;78.80;;;;;;10408027;28;20365;-57
2023/10/27 12:47:18;;;;;;;7.30;3.30;;;17.00;77.90;;;;;;10410598;28;20030;-56
2023/10/27 12:52:19;;;;;;;8.68;2.47;;;17.00;78.50;;;;;;10416047;28;20041;-57
2023/10/27 12:57:19;;;;;;;5.32;2.40;;;17.20;77.90;;;;;;10416229;28;20557;-57
2023/10/27 13:02:21;;;;;;;11.18;2.55;;;17.20;78.30;;;;;;10397835;28;20041;-57
2023/10/27 13:07:22;;;;;;;9.80;2.80;;;17.20;78.90;;;;;;10415604;28;20116;-57
2023/10/27 13:12:23;;;;;;;8.68;3.78;;;17.10;78.50;;;;;;10415381;28;20091;-55
2023/10/27 13:17:24;;;;;;;8.73;2.42;;;17.10;78.70;;;;;;10415621;28;20032;-56
2023/10/27 13:22:26;;;;;;;6.53;2.05;;;17.10;78.60;;;;;;10415328;28;20025;-56
2023/10/27 13:27:27;;;;;;;8.65;3.42;;;17.10;78.60;;;;;;10415536;28;20029;-56
2023/10/27 13:32:28;;;;;;;9.93;2.33;;;17.10;78.50;;;;;;10427057;28;20373;-56
2023/10/27 13:37:29;;;;;;;4.95;2.53;;;17.00;78.60;;;;;;10418857;28;20033;-56
2023/10/27 13:42:29;;;;;;;6.53;2.05;;;16.80;78.80;;;;;;10412833;28;20029;-55
2023/10/27 13:47:31;;;;;;;9.80;2.78;;;16.80;78.80;;;;;;10413504;28;20033;-56
2023/10/27 13:52:32;;;;;;;6.43;2.28;;;16.80;78.90;;;;;;10413046;28;20044;-55
2023/10/27 13:57:33;;;;;;;7.47;1.92;;;16.80;78.90;;;;;;10412675;28;20476;-56
2023/10/27 14:02:34;;;;;;;6.45;2.28;;;16.70;78.80;;;;;;10413542;28;20029;-56
2023/10/27 14:07:34;;;;;;;4.82;1.65;;;16.80;78.60;;;;;;10412320;28;20018;-56
2023/10/27 14:12:36;;;;;;;4.88;1.90;;;16.80;78.50;;;;;;10412640;28;20036;-55
2023/10/27 14:17:37;;;;;;;16.88;3.15;;;16.90;78.20;;;;;;10421402;28;20036;-56
2023/10/27 14:22:38;;;;;;;4.05;2.20;;;16.90;78.10;;;;;;10417866;28;20032;-57
2023/10/27 14:27:38;;;;;;;7.60;2.35;;;17.00;77.90;;;;;;10412737;28;20038;-57
2023/10/27 14:32:39;;;;;;;23.10;3.92;;;17.00;77.70;;;;;;10423844;28;20460;-56
2023/10/27 14:37:40;;;;;;;21.52;3.58;;;17.10;77.90;;;;;;10410952;28;20035;-56
2023/10/27 14:42:41;;;;;;;18.00;2.50;;;17.10;77.80;;;;;;10409624;28;20048;-57
2023/10/27 14:47:45;;;;;;;26.67;4.25;;;17.20;77.70;;;;;;10411642;28;20017;-57
2023/10/27 14:52:45;;;;;;;27.92;4.07;;;17.10;78.10;;;;;;10411114;28;20033;-57
2023/10/27 14:57:46;;;;;;;11.98;2.30;;;17.00;78.50;;;;;;10395095;28;20030;-57
2023/10/27 15:02:47;;;;;;;10.63;2.35;;;16.90;78.40;;;;;;10381276;28;20079;-57
2023/10/27 15:07:47;;;;;;;7.55;2.30;;;17.00;78.10;;;;;;10382715;28;20029;-58
2023/10/27 15:12:48;;;;;;;11.38;3.97;;;17.10;77.90;;;;;;10393519;28;20025;-57
2023/10/27 15:17:49;;;;;;;11.70;3.40;;;17.00;78.60;;;;;;10400004;28;20033;-57
2023/10/27 15:22:50;;;;;;;10.98;3.47;;;17.20;78.80;;;;;;10395181;28;20029;-57
2023/10/27 15:27:51;;;;;;;13.45;5.00;;;17.10;78.60;;;;;;10388988;28;20029;-57
2023/10/27 15:32:52;;;;;;;9.38;5.65;;;17.10;79.30;;;;;;10394963;28;20050;-57
2023/10/27 15:37:52;;;;;;;21.30;8.75;;;17.00;80.10;;;;;;10398048;28;21659;-56
2023/10/27 15:42:53;;;;;;;15.57;5.07;;;17.30;90.40;;;;;;10404502;28;20644;-57
2023/10/27 15:47:54;;;;;;;10.68;3.95;;;17.40;84.50;;;;;;10399319;28;20479;-56
2023/10/27 15:52:54;;;;;;;20.83;5.65;;;17.40;82.30;;;;;;10409858;28;20492;-57
2023/10/27 15:57:55;;;;;;;10.80;3.80;;;17.50;82.90;;;;;;10407650;28;20484;-57
2023/10/27 16:02:56;;;;;;;22.08;6.10;;;17.60;83.70;;;;;;10408831;28;20533;-57
2023/10/27 16:07:57;;;;;;;14.82;3.95;;;17.60;82.40;;;;;;10407615;28;20111;-56
2023/10/27 16:12:59;;;;;;;11.95;4.00;;;17.50;81.70;;;;;;10407789;28;20102;-55
2023/10/27 16:17:59;;;;;;;15.27;5.15;;;17.50;81.90;;;;;;10406368;28;20119;-56
2023/10/27 16:23:03;;;;;;;13.27;4.18;;;17.60;81.60;;;;;;10407910;28;20094;-57
2023/10/27 16:28:04;;;;;;;15.02;4.57;;;17.40;80.90;;;;;;10405168;28;20564;-57
2023/10/27 16:33:05;;;;;;;7.35;3.83;;;17.30;81.50;;;;;;10418818;28;20132;-57
2023/10/27 16:38:09;;;;;;;18.52;4.35;;;17.30;81.60;;;;;;10406799;28;20495;-58
2023/10/27 16:43:10;;;;;;;15.85;3.63;;;17.20;81.60;;;;;;10407589;28;20459;-56
2023/10/27 16:48:11;;;;;;;16.00;3.00;;;17.20;82.30;;;;;;10407511;28;20034;-59
2023/10/27 16:53:11;;;;;;;10.45;4.07;;;17.30;81.60;;;;;;10408960;28;20056;-57
2023/10/27 16:58:12;;;;;;;13.85;4.13;;;17.20;81.60;;;;;;10419066;28;20034;-58
2023/10/27 17:03:14;;;;;;;16.52;5.50;;;17.10;81.70;;;;;;10417140;28;20024;-56
2023/10/27 17:08:14;;;;;;;22.92;5.47;;;17.00;82.70;;;;;;10422140;28;20048;-57
2023/10/27 17:13:15;;;;;;;17.30;4.35;;;16.90;82.80;;;;;;10407659;28;20029;-57
2023/10/27 17:18:16;;;;;;;14.43;4.50;;;17.00;82.00;;;;;;10404970;28;20380;-58
2023/10/27 17:23:16;;;;;;;14.45;5.72;;;17.00;81.80;;;;;;10407642;28;20033;-57
2023/10/27 17:28:17;;;;;;;12.50;3.53;;;17.00;82.00;;;;;;10406778;28;20036;-57
2023/10/27 17:33:18;;;;;;;9.30;3.42;;;17.00;81.90;;;;;;10410464;28;20489;-57
2023/10/27 17:38:19;;;;;;;15.65;3.90;;;16.90;81.90;;;;;;10413880;28;20716;-57
2023/10/27 17:43:20;;;;;;;11.93;3.95;;;16.90;82.10;;;;;;10413892;28;20029;-57
2023/10/27 17:48:21;;;;;;;7.35;3.67;;;16.80;82.70;;;;;;10419592;28;20041;-55
2023/10/27 17:53:21;;;;;;;11.93;3.80;;;16.80;82.50;;;;;;10423748;28;20044;-57
2023/10/27 17:58:22;;;;;;;12.00;4.95;;;16.80;82.70;;;;;;10412492;28;20033;-57
2023/10/27 18:03:23;;;;;;;7.20;3.00;;;16.80;82.10;;;;;;10412998;28;20094;-57
2023/10/27 18:08:24;;;;;;;9.23;3.60;;;16.80;82.00;;;;;;10413147;28;20029;-57
2023/10/27 18:13:25;;;;;;;9.98;3.70;;;16.70;81.60;;;;;;10411078;28;20030;-57
2023/10/27 18:18:29;;;;;;;10.07;4.60;;;16.70;81.90;;;;;;10408270;28;20396;-58
2023/10/27 18:23:30;;;;;;;16.38;4.10;;;16.70;81.80;;;;;;10400990;28;20032;-57
2023/10/27 18:28:31;;;;;;;5.18;2.50;;;16.70;81.30;;;;;;10413839;28;20030;-57
2023/10/27 18:33:32;;;;;;;8.10;3.08;;;16.80;81.20;;;;;;10414320;28;20049;-58
2023/10/27 18:38:32;;;;;;;5.72;3.47;;;16.80;81.00;;;;;;10411375;28;20095;-58
2023/10/27 18:43:33;;;;;;;7.18;3.13;;;16.80;81.00;;;;;;10410550;28;20079;-58
2023/10/27 18:48:34;;;;;;;4.38;2.70;;;16.80;80.90;;;;;;10410718;28;20029;-57
2023/10/27 18:53:35;;;;;;;7.15;3.67;;;16.80;80.90;;;;;;10408924;28;20040;-57
2023/10/27 18:58:39;;;;;;;10.23;3.10;;;16.80;80.80;;;;;;10410309;28;20028;-57
2023/10/27 19:03:45;;;;;;;7.93;2.97;;;16.90;80.70;;;;;;10408603;28;20037;-57
2023/10/27 19:08:46;;;;;;;9.32;2.65;;;16.90;80.70;;;;;;10405625;28;20534;-57
2023/10/27 19:13:47;;;;;;;9.13;3.53;;;16.90;80.50;;;;;;10398876;28;20029;-57
2023/10/27 19:18:48;;;;;;;10.98;4.10;;;16.80;81.20;;;;;;10408093;28;20025;-57
2023/10/27 19:23:54;;;;;;;9.98;2.80;;;16.80;81.40;;;;;;10409029;28;20037;-57
2023/10/27 19:28:55;;;;;;;6.25;3.03;;;16.70;81.70;;;;;;10403477;28;20521;-57
2023/10/27 19:33:57;;;;;;;12.18;3.20;;;16.80;82.00;;;;;;10422483;28;20099;-55
2023/10/27 19:39:00;;;;;;;7.90;3.17;;;16.70;81.80;;;;;;10424439;28;20053;-57
2023/10/27 19:44:01;;;;;;;8.35;3.20;;;16.70;81.90;;;;;;10410032;28;20543;-57
2023/10/27 19:49:02;;;;;;;8.93;3.17;;;16.70;81.80;;;;;;10406503;28;20029;-58
2023/10/27 19:54:04;;;;;;;14.57;2.97;;;16.70;82.10;;;;;;10406464;28;20025;-57
2023/10/27 19:59:05;;;;;;;6.18;2.67;;;16.70;80.90;;;;;;10411856;28;20101;-57
2023/10/27 20:04:06;;;;;;;6.28;2.60;;;16.70;80.90;;;;;;10422076;28;20040;-57
2023/10/27 20:09:11;;;;;;;7.32;3.33;;;16.70;81.00;;;;;;10408930;28;20021;-57
2023/10/27 20:14:12;;;;;;;7.85;2.63;;;16.60;81.60;;;;;;10408830;28;20109;-57
2023/10/27 20:19:13;;;;;;;6.18;3.33;;;16.60;81.00;;;;;;10408365;28;20464;-57
2023/10/27 20:24:14;;;;;;;7.00;3.38;;;16.60;81.00;;;;;;10407360;28;20021;-57
2023/10/27 20:29:15;;;;;;;6.10;3.60;;;16.60;81.00;;;;;;10416717;28;20037;-57
2023/10/27 20:34:16;;;;;;;4.53;2.58;;;16.60;81.00;;;;;;10412250;28;20037;-57
2023/10/27 20:39:16;;;;;;;8.48;2.72;;;16.60;81.00;;;;;;10408060;28;20679;-57
2023/10/27 20:44:17;;;;;;;4.65;2.75;;;16.50;80.90;;;;;;10408406;28;20037;-58
2023/10/27 20:49:18;;;;;;;3.92;2.45;;;16.50;81.00;;;;;;10407846;28;20030;-57
2023/10/27 20:54:18;;;;;;;4.47;3.30;;;16.50;81.00;;;;;;10407329;28;20086;-57
2023/10/27 20:59:19;;;;;;;3.47;2.30;;;16.50;81.00;;;;;;10407203;28;20032;-57
2023/10/27 21:04:21;;;;;;;4.72;2.80;;;16.50;81.00;;;;;;10407594;28;20480;-57
2023/10/27 21:09:21;;;;;;;6.13;3.15;;;16.40;80.80;;;;;;10412905;28;20587;-57
2023/10/27 21:14:22;;;;;;;3.28;2.35;;;16.40;80.90;;;;;;10415942;28;20033;-57
2023/10/27 21:19:23;;;;;;;4.57;2.22;;;16.40;80.90;;;;;;10415115;28;20083;-57
2023/10/27 21:24:24;;;;;;;4.40;2.83;;;16.40;80.70;;;;;;10415058;28;20033;-58
2023/10/27 21:29:24;;;;;;;3.20;2.25;;;16.40;80.80;;;;;;10424494;28;20471;-57
2023/10/27 21:34:25;;;;;;;3.38;2.30;;;16.40;80.80;;;;;;10417345;28;20033;-57
2023/10/27 21:39:26;;;;;;;4.00;2.60;;;16.40;80.70;;;;;;10414627;28;20025;-57
2023/10/27 21:44:27;;;;;;;8.38;3.42;;;16.40;80.70;;;;;;10414969;28;20092;-57
2023/10/27 21:49:27;;;;;;;5.72;2.45;;;16.30;80.70;;;;;;10414382;28;20037;-57
2023/10/27 21:54:28;;;;;;;5.35;2.33;;;16.30;80.70;;;;;;10412517;28;20473;-57
2023/10/27 21:59:29;;;;;;;4.90;2.60;;;16.30;80.70;;;;;;10413974;28;20029;-57
2023/10/27 22:04:29;;;;;;;3.47;2.70;;;16.30;80.80;;;;;;10414087;28;20036;-57
2023/10/27 22:09:30;;;;;;;3.75;2.40;;;16.30;80.70;;;;;;10413290;28;20037;-57
2023/10/27 22:14:33;;;;;;;2.92;1.95;;;16.30;80.80;;;;;;10413793;28;20091;-55
2023/10/27 22:19:33;;;;;;;3.35;2.55;;;16.30;80.70;;;;;;10412651;28;20117;-57
2023/10/27 22:24:34;;;;;;;3.20;2.13;;;16.30;80.70;;;;;;10411774;28;20025;-57
2023/10/27 22:29:35;;;;;;;3.90;2.47;;;16.30;80.70;;;;;;10423142;28;20051;-57
2023/10/27 22:34:35;;;;;;;3.35;2.05;;;16.30;80.70;;;;;;10413155;28;20109;-57
2023/10/27 22:39:36;;;;;;;3.40;2.08;;;16.30;80.70;;;;;;10411554;28;20068;-57
2023/10/27 22:44:37;;;;;;;4.18;2.13;;;16.20;80.60;;;;;;10412840;28;20034;-57
2023/10/27 22:49:38;;;;;;;5.47;3.05;;;16.20;80.60;;;;;;10411818;28;20030;-57
2023/10/27 22:54:40;;;;;;;5.07;2.53;;;16.20;80.70;;;;;;10411995;28;20404;-57
2023/10/27 22:59:40;;;;;;;2.67;1.73;;;16.20;80.60;;;;;;10411630;28;20026;-57
2023/10/27 23:04:42;;;;;;;5.43;2.85;;;16.20;80.50;;;;;;10411546;28;20476;-57
2023/10/27 23:09:43;;;;;;;4.35;2.15;;;16.20;80.50;;;;;;10410774;28;20033;-57
2023/10/27 23:14:44;;;;;;;3.65;2.40;;;16.20;80.40;;;;;;10393640;28;20033;-57
2023/10/27 23:19:47;;;;;;;3.42;1.88;;;16.20;80.40;;;;;;10410539;28;20132;-57
2023/10/27 23:24:48;;;;;;;2.88;2.28;;;16.20;80.30;;;;;;10410664;28;20443;-57
2023/10/27 23:29:50;;;;;;;4.43;3.47;;;16.20;80.20;;;;;;10421027;28;20057;-57
2023/10/27 23:34:51;;;;;;;6.07;2.53;;;16.20;80.30;;;;;;10410790;28;20038;-57
2023/10/27 23:39:52;;;;;;;3.22;2.20;;;16.20;80.20;;;;;;10409896;28;20079;-57
2023/10/27 23:44:52;;;;;;;5.47;3.10;;;16.20;80.30;;;;;;10410034;28;20025;-57
2023/10/27 23:49:53;;;;;;;5.22;1.77;;;16.20;80.20;;;;;;10409439;28;20539;-57
2023/10/27 23:54:54;;;;;;;3.47;1.83;;;16.20;80.30;;;;;;10409674;28;20037;-57
2023/10/27 23:59:56;;;;;;;2.95;2.05;;;16.10;80.10;;;;;;10409254;28;20030;-57
